Clermont-Ferrand Auvergne Airport

Airport
ICAO code: 
LFLC
IATA Code: 
CFE
Summary
ICAO Region: 
EUR
Territory: 
Location: 
Aulnat, Auvergne
Serving: 
Clermont-Ferrand
Elevation: 
1090 ft
Coordinates: 
Aerial View: 
45° 47' 11.98" N, 3° 10' 9.008" E
Metar
Observation
LFLC 272000Z AUTO 26009KT 200V320 9999 BKN033/// BKN047/// BKN070/// ///TCU 04/M01 Q0997 TEMPO 28015G25KT 4000 SHRASN
Station
Clermont-Ferrand
Date/Time
2021-11-27 20:00:00
Wind direction
260°
Wind speed
09 kts
Lowest cloud amount
broken clouds
Temperature
4°C
Dew point
-1°C
Humidity
69%
QNH
997 hPa
Weather condition
n/a

Clermont-Ferrand Auvergne Airport is an airport serving the French city of Clermont-Ferrand. It is located 6.7 km east of the city, in Aulnat.

Climatology

Temperate Oceanic climate (Köppen climate classification Cfb).

Runways

Designator Length Width Surface Rops
08L/26R 0 0 UNK No/No
8/26 3015 45 ASP Yes/Yes
Airport map: 
Aerial View: 

SKYbrary Partners:

Safety knowledge contributed by: